Flight Track Log - Related Links

Times and Time Zones

All times are in EST time to prevent confusion due to time zone crossing. See the CNS128 flight status page for this flight to view local times or setup timezone preferences in your user account.

Time Position Orientation Groundspeed Altitude Reporting Facility
EST Latitude Longitude Course Direction KTS MPH feet Rate Location/Type
Wed 10:22:53 PM 40.8000 -73.8667 56° Northeast 105 121 1,300  Level New York TRACON
Wed 10:23:53 PM 40.8167 -73.8500 37° Northeast 126 145 3,400 1,800 Climbing New York TRACON
Wed 10:24:53 PM 40.8500 -73.8167 37° Northeast 152 175 4,900 1,579 Climbing New York TRACON
Wed 10:25:47 PM 40.8833 -73.7833 37° Northeast 174 200 6,400 1,272 Climbing New York TRACON
Wed 10:27:57 PM 40.9486 -73.6622 54° Northeast 191 220 8,800 1,005 Climbing Boston Center
Wed 10:28:00 PM 41.0018 -73.5964 56° Northeast  Level FlightAware Approximate
Wed 10:28:58 PM 41.0028 -73.5994 41° Northeast 224 258 9,600  Level Boston Center
Wed 10:29:59 PM 41.0492 -73.5428 43° Northeast 228 262 10,700 1,041 Climbing Boston Center
Wed 10:30:59 PM 41.0983 -73.4842 42° Northeast 236 272 11,700 1,041 Climbing Boston Center
Wed 10:32:00 PM 41.1514 -73.4186 43° Northeast 242 278 12,800 639 Climbing Boston Center
Wed 10:33:01 PM 41.2067 -73.3514 42° Northeast 263 303 13,000 99 Climbing Boston Center
Wed 10:34:01 PM 41.2669 -73.2778 43° Northeast 281 323 13,000  Level Boston Center
Wed 10:35:02 PM 41.3250 -73.1978 46° Northeast 300 345 13,000  Level Boston Center
Wed 10:36:03 PM 41.3686 -73.1008 59° Northeast 305 351 13,000  Level Boston Center
Wed 10:37:03 PM 41.4150 -73.0072 57° Northeast 304 350 13,000  Level Boston Center
Wed 10:38:04 PM 41.4639 -72.9069 57° Northeast 302 348 13,000  Level Boston Center
Wed 10:39:05 PM 41.5103 -72.8139 56° Northeast 302 348 13,000  Level Boston Center
Wed 10:40:05 PM 41.5564 -72.7208 56° Northeast 303 349 13,000  Level Boston Center
Wed 10:41:06 PM 41.6022 -72.6272 57° Northeast 303 349 13,000 -151 Level Boston Center
Wed 10:42:04 PM 41.6506 -72.5364 55° Northeast 299 344 12,700 -295 Descending Boston Center
Wed 10:42:07 PM 41.6500 -72.5356 132° Southeast 303 349 12,700 -960 Level Boston Center
Wed 10:42:29 PM 41.6758 -72.5081 38° Northeast 304 350 12,300 -984 Descending Boston Center
Wed 10:43:08 PM 41.7200 -72.4592 40° Northeast 303 349 11,700 -900 Descending Boston Center
Wed 10:43:29 PM 41.7392 -72.4383 39° Northeast 303 349 11,400 -1,000 Descending Boston Center
Wed 10:44:08 PM 41.7828 -72.3892 40° Northeast 296 341 10,700 -984 Descending Boston Center
Wed 10:44:30 PM 41.8006 -72.3678 42° Northeast 287 330 10,400 -590 Descending Boston Center
Wed 10:45:09 PM 41.8425 -72.3228 39° Northeast 280 322 10,100 -358 Descending Boston Center
Wed 10:45:37 PM 41.8694 -72.2914 41° Northeast 275 316 10,000  Descending Boston Center
Wed 10:46:10 PM 41.8997 -72.2569 40° Northeast 273 314 10,100 65 Climbing Boston Center
Wed 10:47:10 PM 41.9569 -72.1939 39° Northeast 269 310 10,100 -298 Level Boston Center
Wed 10:48:11 PM 42.0194 -72.1242 40° Northeast 273 314 9,500 -885 Descending Boston Center
Wed 10:49:12 PM 42.0772 -72.0583 40° Northeast 274 315 8,300 -1,091 Descending Boston Center
Wed 10:50:12 PM 42.1336 -71.9956 40° Northeast 264 304 7,300 -1,041 Descending Boston Center
Wed 10:51:13 PM 42.1883 -71.9364 39° Northeast 254 292 6,200 -1,033 Descending Boston Center
Wed 10:52:14 PM 42.2417 -71.8789 39° Northeast 237 273 5,200 -545 Descending Boston Center
Wed 10:53:14 PM 42.2914 -71.8239 39° Northeast 233 268 5,100 -50 Descending Boston Center
Wed 10:54:15 PM 42.3375 -71.7717 40° Northeast 226 260 5,100 -246 Level Boston Center
Wed 10:55:16 PM 42.3731 -71.6956 58° Northeast 231 266 4,600 -738 Descending Boston Center
Wed 10:56:17 PM 42.3933 -71.6153 71° East 227 261 3,600 -793 Descending Boston Center
Wed 10:57:17 PM 42.4119 -71.5356 72° East 224 258 3,000 -496 Descending Boston Center
Wed 10:58:18 PM 42.4311 -71.4583 71° East 220 253 2,600 -393 Descending Boston Center

Login

Don't have an account? Register now (free) for customized features, flight alerts, and more!